createdAt,value
2018-09-29T00:01:05.884Z,101618.95
2018-09-29T00:03:37.622Z,101622.09
2018-09-29T00:06:09.209Z,101624.01
2018-09-29T00:08:40.685Z,101621.37
2018-09-29T00:11:12.403Z,101629.21
2018-09-29T00:13:43.833Z,101636.38
2018-09-29T00:16:15.312Z,101637.53
2018-09-29T00:18:46.679Z,101644.38
2018-09-29T00:21:18.195Z,101653.19
2018-09-29T00:23:49.720Z,101653.46
2018-09-29T00:26:21.412Z,101646.67
2018-09-29T00:28:52.697Z,101642.88
2018-09-29T00:31:24.259Z,101639.38
2018-09-29T00:33:55.828Z,101641.88
2018-09-29T00:36:34.308Z,101651.16
2018-09-29T00:39:06.695Z,101647.90
2018-09-29T00:41:38.364Z,101649.89
2018-09-29T00:44:09.788Z,101650.47
2018-09-29T00:46:41.300Z,101643.02
2018-09-29T00:49:12.802Z,101641.66
2018-09-29T00:51:44.425Z,101638.88
2018-09-29T00:54:15.843Z,101634.73
2018-09-29T00:56:47.301Z,101636.59
2018-09-29T00:59:18.722Z,101647.81
2018-09-29T01:01:50.216Z,101646.59
2018-09-29T01:04:22.228Z,101658.53
2018-09-29T01:06:53.729Z,101655.18
2018-09-29T01:09:25.313Z,101658.53
2018-09-29T01:11:56.742Z,101664.18
2018-09-29T01:14:28.307Z,101666.90
2018-09-29T01:17:00.739Z,101664.59
2018-09-29T01:19:32.307Z,101662.26
2018-09-29T01:22:03.751Z,101663.91
2018-09-29T01:24:34.788Z,101658.88
2018-09-29T01:27:05.750Z,101663.17
2018-09-29T01:29:37.200Z,101653.38
2018-09-29T01:32:08.673Z,101660.61
2018-09-29T01:34:40.209Z,101654.80
2018-09-29T01:37:11.686Z,101659.77
2018-09-29T01:39:43.007Z,101664.53
2018-09-29T01:42:14.685Z,101661.59
2018-09-29T01:44:45.990Z,101658.95
2018-09-29T01:47:17.512Z,101658.82
2018-09-29T01:49:49.260Z,101661.53
2018-09-29T01:52:20.721Z,101661.97
2018-09-29T01:54:52.300Z,101668.26
2018-09-29T01:57:24.373Z,101665.89
2018-09-29T01:59:55.861Z,101666.63
2018-09-29T02:02:27.516Z,101666.97
2018-09-29T02:04:59.195Z,101667.19
2018-09-29T02:07:30.692Z,101666.98
2018-09-29T02:10:02.011Z,101660.96
2018-09-29T02:12:33.677Z,101662.61
2018-09-29T02:15:05.218Z,101665.61
2018-09-29T02:17:36.701Z,101665.67
2018-09-29T02:20:08.637Z,101654.65
2018-09-29T02:22:39.961Z,101655.16
2018-09-29T02:25:10.567Z,101662.55
2018-09-29T02:27:42.203Z,101661.88
2018-09-29T02:30:13.695Z,101660.96
2018-09-29T02:32:45.186Z,101661.19
2018-09-29T02:35:16.728Z,101658.19
2018-09-29T02:37:48.209Z,101653.67
2018-09-29T02:40:19.617Z,101662.31
2018-09-29T02:42:50.983Z,101659.89
2018-09-29T02:45:22.685Z,101659.83
2018-09-29T02:47:54.524Z,101664.88
2018-09-29T02:50:26.208Z,101668.45
2018-09-29T02:52:57.663Z,101662.67
2018-09-29T02:55:28.994Z,101662.45
2018-09-29T02:58:00.523Z,101666.53
2018-09-29T03:00:32.008Z,101667.32
2018-09-29T03:03:03.659Z,101669.24
2018-09-29T03:05:35.387Z,101665.08
2018-09-29T03:08:06.816Z,101665.80
2018-09-29T03:10:38.344Z,101666.97
2018-09-29T03:13:09.793Z,101665.48
2018-09-29T03:15:41.663Z,101670.70
2018-09-29T03:18:13.189Z,101665.89
2018-09-29T03:20:44.750Z,101663.94
2018-09-29T03:23:16.330Z,101662.36
2018-09-29T03:25:47.739Z,101675.53
2018-09-29T03:28:19.475Z,101681.75
2018-09-29T03:30:50.825Z,101684.37
2018-09-29T03:33:22.607Z,101688.83
2018-09-29T03:35:54.653Z,101691.45
2018-09-29T03:38:26.199Z,101688.60
2018-09-29T03:40:57.717Z,101694.95
2018-09-29T03:43:29.298Z,101698.11
2018-09-29T03:46:00.748Z,101705.56
2018-09-29T03:48:32.261Z,101698.36
2018-09-29T03:51:03.744Z,101708.88
2018-09-29T03:53:35.231Z,101713.23
2018-09-29T03:56:07.828Z,101710.23
2018-09-29T03:58:39.415Z,101711.94
2018-09-29T04:01:10.856Z,101711.09
2018-09-29T04:03:42.746Z,101710.86
2018-09-29T04:06:14.353Z,101717.30
2018-09-29T04:08:46.197Z,101724.44
2018-09-29T04:11:17.638Z,101713.95
2018-09-29T04:13:48.944Z,101719.61
2018-09-29T04:16:19.823Z,101717.59
2018-09-29T04:18:51.309Z,101719.39
2018-09-29T04:21:22.714Z,101717.87
2018-09-29T04:23:53.959Z,101713.80
2018-09-29T04:26:27.536Z,101720.88
2018-09-29T04:28:59.033Z,101721.72
2018-09-29T04:31:30.600Z,101720.80
2018-09-29T04:34:02.298Z,101728.06
2018-09-29T04:36:33.774Z,101719.06
2018-09-29T04:39:06.196Z,101724.43
2018-09-29T04:41:37.828Z,101724.72
2018-09-29T04:44:10.200Z,101721.84
2018-09-29T04:46:42.645Z,101729.20
2018-09-29T04:49:14.251Z,101730.78
2018-09-29T04:51:45.679Z,101740.05
2018-09-29T04:54:17.182Z,101746.77
2018-09-29T04:56:49.704Z,101739.26
2018-09-29T04:59:21.296Z,101741.34
2018-09-29T05:01:52.726Z,101740.44
2018-09-29T05:04:24.196Z,101736.59
2018-09-29T05:06:56.859Z,101747.50
2018-09-29T05:09:28.355Z,101746.38
2018-09-29T05:11:59.771Z,101749.19
2018-09-29T05:14:31.195Z,101750.89
2018-09-29T05:17:02.661Z,101766.81
2018-09-29T05:19:34.031Z,101765.98
2018-09-29T05:22:05.694Z,101774.05
2018-09-29T05:24:36.752Z,101778.34
2018-09-29T05:27:07.836Z,101777.05
2018-09-29T05:29:38.791Z,101779.91
2018-09-29T05:32:09.831Z,101769.72
2018-09-29T05:34:40.777Z,101776.16
2018-09-29T05:37:11.848Z,101778.63
2018-09-29T05:39:43.619Z,101780.86
2018-09-29T05:42:14.949Z,101781.30
2018-09-29T05:44:45.544Z,101786.53
2018-09-29T05:47:16.992Z,101789.57
2018-09-29T05:49:48.624Z,101784.22
2018-09-29T05:52:20.195Z,101789.23
2018-09-29T05:54:51.677Z,101784.94
2018-09-29T05:57:23.199Z,101785.23
2018-09-29T05:59:54.682Z,101789.81
2018-09-29T06:02:26.675Z,101789.16
2018-09-29T06:04:58.198Z,101788.95
2018-09-29T06:07:29.781Z,101788.45
2018-09-29T06:10:01.418Z,101783.37
2018-09-29T06:12:34.527Z,101792.00
2018-09-29T06:15:05.807Z,101792.80
2018-09-29T06:17:37.193Z,101796.81
2018-09-29T06:20:08.659Z,101797.45
2018-09-29T06:22:40.346Z,101793.28
2018-09-29T06:25:11.799Z,101794.92
2018-09-29T06:27:43.196Z,101795.50
2018-09-29T06:30:15.053Z,101796.22
2018-09-29T06:32:46.716Z,101794.52
2018-09-29T06:35:18.300Z,101803.65
2018-09-29T06:37:49.710Z,101804.09
2018-09-29T06:40:21.302Z,101804.98
2018-09-29T06:42:52.752Z,101805.88
2018-09-29T06:45:24.360Z,101808.67
2018-09-29T06:47:55.752Z,101816.11
2018-09-29T06:50:26.976Z,101813.82
2018-09-29T06:52:58.566Z,101819.92
2018-09-29T06:55:31.190Z,101820.84
2018-09-29T06:58:02.646Z,101820.62
2018-09-29T07:00:34.202Z,101830.17
2018-09-29T07:03:05.786Z,101835.83
2018-09-29T07:05:36.900Z,101823.31
2018-09-29T07:08:08.493Z,101826.66
2018-09-29T07:10:40.047Z,101835.61
2018-09-29T07:13:11.578Z,101824.58
2018-09-29T07:15:42.879Z,101829.70
2018-09-29T07:18:14.240Z,101836.52
2018-09-29T07:20:45.709Z,101837.88
2018-09-29T07:23:17.199Z,101833.74
2018-09-29T07:25:48.691Z,101831.31
2018-09-29T07:28:21.563Z,101830.45
2018-09-29T07:30:52.956Z,101833.80
2018-09-29T07:33:24.497Z,101830.84
2018-09-29T07:35:55.979Z,101830.62
2018-09-29T07:38:26.563Z,101838.61
2018-09-29T07:40:58.211Z,101834.47
2018-09-29T07:43:29.725Z,101831.25
2018-09-29T07:46:01.333Z,101838.55
2018-09-29T07:48:32.818Z,101832.45
2018-09-29T07:51:04.385Z,101832.45
2018-09-29T07:53:35.761Z,101833.80
2018-09-29T07:56:07.710Z,101839.24
2018-09-29T07:58:39.419Z,101841.48
2018-09-29T08:01:10.903Z,101849.03
2018-09-29T08:03:42.491Z,101846.09
2018-09-29T08:06:14.295Z,101840.98
2018-09-29T08:08:45.738Z,101837.47
2018-09-29T08:11:16.799Z,101839.05
2018-09-29T08:13:48.018Z,101830.05
2018-09-29T08:16:19.664Z,101830.67
2018-09-29T08:18:51.189Z,101831.75
2018-09-29T08:21:22.730Z,101829.03
2018-09-29T08:23:54.203Z,101832.73
2018-09-29T08:26:25.735Z,101838.98
2018-09-29T08:28:57.371Z,101835.04
2018-09-29T08:31:28.915Z,101835.14
2018-09-29T08:34:00.438Z,101834.98
2018-09-29T08:36:31.863Z,101837.57
2018-09-29T08:39:03.607Z,101834.53
2018-09-29T08:41:35.748Z,101841.94
2018-09-29T08:44:07.663Z,101833.11
2018-09-29T08:46:38.998Z,101847.72
2018-09-29T08:49:10.622Z,101840.86
2018-09-29T08:51:41.994Z,101853.19
2018-09-29T08:54:13.568Z,101845.31
2018-09-29T08:56:44.856Z,101846.01
2018-09-29T08:59:16.406Z,101845.95
2018-09-29T09:01:47.785Z,101847.02
2018-09-29T09:04:19.359Z,101840.13
2018-09-29T09:06:50.843Z,101839.02
2018-09-29T09:09:22.079Z,101838.89
2018-09-29T09:11:53.322Z,101843.38
2018-09-29T09:14:24.790Z,101839.87
2018-09-29T09:16:56.427Z,101848.48
2018-09-29T09:19:27.819Z,101833.08
2018-09-29T09:21:59.206Z,101836.73
2018-09-29T09:24:30.903Z,101839.33
2018-09-29T09:27:02.363Z,101843.66
2018-09-29T09:29:33.786Z,101840.72
2018-09-29T09:32:05.312Z,101838.09
2018-09-29T09:34:36.743Z,101835.59
2018-09-29T09:37:08.315Z,101829.74
2018-09-29T09:39:39.753Z,101832.81
2018-09-29T09:42:11.296Z,101827.59
2018-09-29T09:44:42.811Z,101828.44
2018-09-29T09:47:14.318Z,101831.61
2018-09-29T09:49:45.755Z,101826.17
2018-09-29T09:52:17.407Z,101831.89
2018-09-29T09:54:48.862Z,101826.75
2018-09-29T09:57:20.415Z,101820.86
2018-09-29T09:59:51.774Z,101821.94
2018-09-29T10:02:28.413Z,101816.06
2018-09-29T10:04:59.834Z,101822.65
2018-09-29T10:07:31.335Z,101819.87
2018-09-29T10:10:02.747Z,101810.70
2018-09-29T10:12:34.313Z,101819.02
2018-09-29T10:15:05.762Z,101815.29
2018-09-29T10:17:37.265Z,101818.30
2018-09-29T10:20:09.200Z,101819.02
2018-09-29T10:22:40.714Z,101812.44
2018-09-29T10:26:07.460Z,101815.30
2018-09-29T10:28:38.860Z,101806.28
2018-09-29T10:31:10.777Z,101814.87
2018-09-29T10:33:42.425Z,101802.97
2018-09-29T10:36:14.204Z,101812.41
2018-09-29T10:38:45.771Z,101803.10
2018-09-29T10:41:17.213Z,101804.47
2018-09-29T10:43:48.677Z,101804.13
2018-09-29T10:46:20.227Z,101799.53
2018-09-29T10:48:51.706Z,101791.16
2018-09-29T10:51:22.985Z,101783.92
2018-09-29T10:53:53.526Z,101784.27
2018-09-29T10:56:24.892Z,101777.13
2018-09-29T11:01:34.581Z,101769.55
2018-09-29T11:04:05.418Z,101769.05
2018-09-29T11:06:36.634Z,101761.52
2018-09-29T11:09:11.352Z,101761.60
2018-09-29T11:11:42.455Z,101759.95
2018-09-29T11:14:13.605Z,101755.14
2018-09-29T11:16:44.601Z,101751.83
2018-09-29T11:19:15.610Z,101754.97
2018-09-29T11:21:46.623Z,101753.10
2018-09-29T11:24:18.199Z,101756.33
2018-09-29T11:26:49.687Z,101754.28
2018-09-29T11:29:21.222Z,101751.27
2018-09-29T11:31:52.656Z,101746.13
2018-09-29T11:34:24.535Z,101742.52
2018-09-29T11:36:55.933Z,101743.53
2018-09-29T11:39:26.692Z,101733.37
2018-09-29T11:41:58.224Z,101730.06
2018-09-29T11:44:29.734Z,101728.86
2018-09-29T11:47:01.310Z,101725.04
2018-09-29T11:49:32.784Z,101719.85
2018-09-29T11:52:04.362Z,101717.47
2018-09-29T11:54:35.787Z,101719.89
2018-09-29T11:57:07.227Z,101717.81
2018-09-29T11:59:38.844Z,101717.13
2018-09-29T12:02:10.482Z,101714.11
2018-09-29T12:04:41.801Z,101709.11
2018-09-29T12:07:13.399Z,101705.73
2018-09-29T12:09:44.884Z,101707.55
2018-09-29T12:12:16.421Z,101709.80
2018-09-29T12:14:47.843Z,101694.39
2018-09-29T12:17:19.384Z,101686.26
2018-09-29T12:19:50.848Z,101687.91
2018-09-29T12:25:04.613Z,101682.16
2018-09-29T12:27:35.651Z,101680.15
2018-09-29T12:30:07.562Z,101672.68
2018-09-29T12:32:38.726Z,101667.23
2018-09-29T12:35:09.740Z,101668.34
2018-09-29T12:37:40.812Z,101657.95
2018-09-29T12:40:12.439Z,101659.68
2018-09-29T12:42:43.897Z,101656.05
2018-09-29T12:45:15.363Z,101650.69
2018-09-29T12:47:46.801Z,101646.88
2018-09-29T12:50:18.296Z,101649.21
2018-09-29T12:52:49.798Z,101643.23
2018-09-29T12:55:21.224Z,101635.39
2018-09-29T12:57:54.105Z,101631.28
2018-09-29T13:00:25.667Z,101632.45
2018-09-29T13:02:57.225Z,101626.06
2018-09-29T13:05:28.639Z,101624.89
2018-09-29T13:08:00.202Z,101618.84
2018-09-29T13:10:31.676Z,101616.63
2018-09-29T13:13:03.213Z,101611.70
2018-09-29T13:15:34.781Z,101606.45
2018-09-29T13:18:06.206Z,101603.13
2018-09-29T13:20:37.714Z,101598.31
2018-09-29T13:23:09.316Z,101599.74
2018-09-29T13:25:40.769Z,101598.19
2018-09-29T13:28:12.319Z,101596.23
2018-09-29T13:30:43.787Z,101591.75
2018-09-29T13:33:15.358Z,101589.22
2018-09-29T13:35:46.785Z,101590.59
2018-09-29T13:38:18.529Z,101582.16
2018-09-29T13:40:49.886Z,101587.02
2018-09-29T13:43:23.794Z,101584.77
2018-09-29T13:45:55.225Z,101569.23
2018-09-29T13:48:26.694Z,101570.12
2018-09-29T13:50:58.210Z,101563.84
2018-09-29T13:53:29.757Z,101561.38
2018-09-29T13:56:01.643Z,101557.62
2018-09-29T13:58:33.427Z,101552.89
2018-09-29T14:01:04.838Z,101548.31
2018-09-29T14:03:36.443Z,101544.84
2018-09-29T14:06:07.893Z,101538.88
2018-09-29T14:08:39.537Z,101541.02
2018-09-29T14:11:11.409Z,101541.27
2018-09-29T14:13:42.767Z,101547.77
2018-09-29T14:16:14.216Z,101550.15
2018-09-29T14:18:45.733Z,101533.64
2018-09-29T14:21:17.315Z,101524.87
2018-09-29T14:23:48.744Z,101523.20
2018-09-29T14:26:20.289Z,101519.65
2018-09-29T14:28:51.855Z,101524.24
2018-09-29T14:31:23.543Z,101520.67
2018-09-29T14:33:55.595Z,101512.11
2018-09-29T14:36:26.689Z,101508.80
2018-09-29T14:38:57.674Z,101505.55
2018-09-29T14:41:28.705Z,101506.80
2018-09-29T14:43:59.877Z,101505.64
2018-09-29T14:46:31.363Z,101500.91
2018-09-29T14:49:02.927Z,101501.92
2018-09-29T14:51:34.522Z,101501.67
2018-09-29T14:54:06.213Z,101498.76
2018-09-29T14:56:37.719Z,101496.55
2018-09-29T14:59:09.395Z,101490.78
2018-09-29T15:01:40.827Z,101486.56
2018-09-29T15:04:12.434Z,101484.05
2018-09-29T15:06:43.865Z,101482.49
2018-09-29T15:09:15.389Z,101483.66
2018-09-29T15:11:46.908Z,101485.02
2018-09-29T15:14:18.439Z,101473.26
2018-09-29T15:16:49.760Z,101475.39
2018-09-29T15:19:21.206Z,101459.91
2018-09-29T15:21:52.721Z,101459.34
2018-09-29T15:24:24.208Z,101459.52
2018-09-29T15:26:55.703Z,101462.55
2018-09-29T15:29:27.321Z,101463.41
2018-09-29T15:31:58.772Z,101461.92
2018-09-29T15:34:30.432Z,101453.62
2018-09-29T15:37:01.821Z,101456.48
2018-09-29T15:39:33.421Z,101441.44
2018-09-29T15:42:04.802Z,101453.23
2018-09-29T15:44:36.200Z,101435.98
2018-09-29T15:47:07.744Z,101439.62
2018-09-29T15:49:39.287Z,101436.81
2018-09-29T15:52:10.704Z,101439.76
2018-09-29T15:54:42.190Z,101441.44
2018-09-29T15:57:13.651Z,101440.46
2018-09-29T15:59:45.198Z,101435.66
2018-09-29T16:02:16.806Z,101430.20
2018-09-29T16:04:48.286Z,101432.03
2018-09-29T16:07:19.775Z,101423.38
2018-09-29T16:09:51.214Z,101422.26
2018-09-29T16:12:22.786Z,101425.68
2018-09-29T16:14:54.423Z,101422.76
2018-09-29T16:17:25.836Z,101431.36
2018-09-29T16:19:57.208Z,101421.34
2018-09-29T16:22:28.672Z,101417.59
2018-09-29T16:25:00.004Z,101417.93
2018-09-29T16:27:31.521Z,101414.68
2018-09-29T16:30:03.189Z,101411.62
2018-09-29T16:32:34.738Z,101412.09
2018-09-29T16:35:06.349Z,101410.03
2018-09-29T16:37:37.543Z,101408.95
2018-09-29T16:40:08.862Z,101409.93
2018-09-29T16:42:40.374Z,101407.19
2018-09-29T16:45:11.784Z,101404.42
2018-09-29T16:47:43.223Z,101394.78
2018-09-29T16:50:14.716Z,101414.87
2018-09-29T16:52:46.382Z,101411.30
2018-09-29T16:55:17.793Z,101409.35
2018-09-29T16:57:49.302Z,101413.89
2018-09-29T17:00:20.734Z,101415.91
2018-09-29T17:02:52.207Z,101417.45
2018-09-29T17:05:23.707Z,101419.13
2018-09-29T17:07:55.211Z,101424.52
2018-09-29T17:10:25.755Z,101425.88
2018-09-29T17:12:57.350Z,101426.72
2018-09-29T17:15:28.773Z,101427.05
2018-09-29T17:18:00.310Z,101423.47
2018-09-29T17:20:31.698Z,101431.63
2018-09-29T17:23:03.228Z,101432.83
2018-09-29T17:25:34.662Z,101427.05
2018-09-29T17:28:06.350Z,101427.77
2018-09-29T17:30:37.893Z,101427.31
2018-09-29T17:33:09.650Z,101430.42
2018-09-29T17:35:41.275Z,101428.73
2018-09-29T17:38:12.756Z,101430.55
2018-09-29T17:40:44.332Z,101437.20
2018-09-29T17:43:15.850Z,101433.27
2018-09-29T17:45:47.383Z,101433.08
2018-09-29T17:48:18.833Z,101434.50
2018-09-29T17:50:50.203Z,101433.73
2018-09-29T17:53:21.659Z,101433.53
2018-09-29T17:55:52.966Z,101430.95
2018-09-29T17:58:23.674Z,101435.55
2018-09-29T18:00:55.310Z,101440.98
2018-09-29T18:03:26.819Z,101437.53
2018-09-29T18:05:58.227Z,101430.36
2018-09-29T18:08:29.465Z,101423.93
2018-09-29T18:11:00.866Z,101426.25
2018-09-29T18:13:32.426Z,101421.06
2018-09-29T18:16:04.212Z,101423.98
2018-09-29T18:18:35.722Z,101429.28
2018-09-29T18:21:07.363Z,101431.23
2018-09-29T18:23:39.206Z,101434.41
2018-09-29T18:26:10.743Z,101432.50
2018-09-29T18:28:42.340Z,101432.37
2018-09-29T18:31:13.762Z,101432.50
2018-09-29T18:33:45.306Z,101428.62
2018-09-29T18:36:16.856Z,101424.74
2018-09-29T18:41:29.199Z,101419.62
2018-09-29T18:44:00.746Z,101421.84
2018-09-29T18:46:32.305Z,101424.70
2018-09-29T18:49:03.701Z,101423.14
2018-09-29T18:51:35.325Z,101412.33
2018-09-29T18:54:06.988Z,101413.37
2018-09-29T18:56:38.299Z,101404.06
2018-09-29T18:59:09.857Z,101406.33
2018-09-29T19:01:41.351Z,101406.47
2018-09-29T19:04:12.896Z,101407.06
2018-09-29T19:06:44.548Z,101402.02
2018-09-29T19:09:15.890Z,101400.86
2018-09-29T19:11:47.379Z,101402.08
2018-09-29T19:14:18.980Z,101399.42
2018-09-29T19:16:50.571Z,101398.70
2018-09-29T19:19:22.203Z,101391.08
2018-09-29T19:21:53.687Z,101391.94
2018-09-29T19:24:25.036Z,101390.60
2018-09-29T19:26:56.667Z,101390.91
2018-09-29T19:29:28.212Z,101384.56
2018-09-29T19:31:59.806Z,101383.95
2018-09-29T19:34:31.224Z,101392.94
2018-09-29T19:37:02.480Z,101380.16
2018-09-29T19:39:33.897Z,101390.11
2018-09-29T19:42:05.547Z,101390.42
2018-09-29T19:44:37.213Z,101396.81
2018-09-29T19:47:08.691Z,101391.23
2018-09-29T19:49:40.359Z,101378.83
2018-09-29T19:52:11.817Z,101370.98
2018-09-29T19:54:43.397Z,101369.80
2018-09-29T19:57:14.874Z,101365.72
2018-09-29T19:59:46.361Z,101365.52
2018-09-29T20:02:17.740Z,101368.38
2018-09-29T20:04:49.301Z,101367.52
2018-09-29T20:07:20.760Z,101365.34
2018-09-29T20:09:52.203Z,101356.20
2018-09-29T20:12:23.800Z,101360.36
2018-09-29T20:14:55.283Z,101360.63
2018-09-29T20:17:26.816Z,101355.94
2018-09-29T20:19:58.391Z,101354.24
2018-09-29T20:22:29.904Z,101347.59
2018-09-29T20:25:01.419Z,101341.88
2018-09-29T20:27:32.768Z,101342.80
2018-09-29T20:30:04.371Z,101339.03
2018-09-29T20:32:35.894Z,101342.91
2018-09-29T20:35:07.290Z,101343.41
2018-09-29T20:37:38.825Z,101341.75
2018-09-29T20:40:10.367Z,101344.22
2018-09-29T20:42:41.784Z,101341.50
2018-09-29T20:45:12.872Z,101340.52
2018-09-29T20:47:44.343Z,101333.25
2018-09-29T20:50:15.761Z,101336.41
2018-09-29T20:52:47.046Z,101331.38
2018-09-29T20:55:18.513Z,101332.44
2018-09-29T20:57:50.306Z,101321.16
2018-09-29T21:00:21.707Z,101322.73
2018-09-29T21:02:53.394Z,101322.39
2018-09-29T21:05:24.756Z,101316.76
2018-09-29T21:07:56.296Z,101319.48
2018-09-29T21:10:27.820Z,101314.69
2018-09-29T21:12:59.404Z,101311.94
2018-09-29T21:15:30.831Z,101309.25
2018-09-29T21:18:02.294Z,101317.98
2018-09-29T21:20:40.600Z,101308.61
2018-09-29T21:23:12.203Z,101301.61
2018-09-29T21:25:43.652Z,101300.77
2018-09-29T21:28:15.242Z,101292.81
2018-09-29T21:30:46.700Z,101291.77
2018-09-29T21:33:18.298Z,101293.66
2018-09-29T21:35:49.744Z,101293.53
2018-09-29T21:38:21.197Z,101292.37
2018-09-29T21:40:52.677Z,101288.09
2018-09-29T21:43:24.199Z,101288.23
2018-09-29T21:45:55.756Z,101287.72
2018-09-29T21:48:27.427Z,101273.30
2018-09-29T21:50:58.962Z,101277.78
2018-09-29T21:53:29.559Z,101268.61
2018-09-29T21:56:00.990Z,101264.67
2018-09-29T21:58:32.563Z,101257.00
2018-09-29T22:01:09.186Z,101254.77
2018-09-29T22:03:40.744Z,101250.69
2018-09-29T22:06:12.202Z,101246.98
2018-09-29T22:08:43.648Z,101234.90
2018-09-29T22:11:15.320Z,101241.58
2018-09-29T22:13:46.772Z,101236.34
2018-09-29T22:16:18.183Z,101229.13
2018-09-29T22:18:49.743Z,101229.47
2018-09-29T22:21:21.360Z,101218.97
2018-09-29T22:23:52.854Z,101219.63
2018-09-29T22:26:24.381Z,101214.59
2018-09-29T22:28:55.805Z,101215.58
2018-09-29T22:31:27.362Z,101206.35
2018-09-29T22:33:58.759Z,101202.08
2018-09-29T22:36:29.775Z,101197.05
2018-09-29T22:39:00.897Z,101198.09
2018-09-29T22:41:31.575Z,101193.45
2018-09-29T22:44:02.998Z,101187.25
2018-09-29T22:46:34.562Z,101182.30
2018-09-29T22:49:07.316Z,101182.19
2018-09-29T22:51:38.781Z,101178.31
2018-09-29T22:54:10.435Z,101179.13
2018-09-29T22:56:41.739Z,101166.06
2018-09-29T22:59:13.298Z,101171.63
2018-09-29T23:01:44.744Z,101168.61
2018-09-29T23:04:15.806Z,101166.26
2018-09-29T23:06:46.770Z,101161.14
2018-09-29T23:09:18.386Z,101165.86
2018-09-29T23:11:49.905Z,101163.85
2018-09-29T23:14:21.415Z,101166.28
2018-09-29T23:16:52.834Z,101160.83
2018-09-29T23:19:24.422Z,101165.89
2018-09-29T23:21:55.738Z,101172.20
2018-09-29T23:24:27.405Z,101169.48
2018-09-29T23:26:58.839Z,101163.80
2018-09-29T23:29:30.415Z,101166.06
2018-09-29T23:32:01.836Z,101162.63
2018-09-29T23:34:33.439Z,101166.51
2018-09-29T23:37:05.188Z,101162.09
2018-09-29T23:39:36.746Z,101152.93
2018-09-29T23:42:08.193Z,101153.98
2018-09-29T23:44:39.766Z,101143.94
2018-09-29T23:47:11.334Z,101148.01
2018-09-29T23:49:42.804Z,101143.73
2018-09-29T23:52:14.496Z,101143.62
2018-09-29T23:54:46.275Z,101142.89
2018-09-29T23:57:17.715Z,101150.12
2018-09-29T23:59:49.190Z,101144.39
